sensor_id;sensor_type;location;lat;lon;timestamp;P1;durP1;ratioP1;P2;durP2;ratioP2
10550;SDS011;5324;50.684;3.862;2023-03-13T00:02:02;9.83;;;3.67;;
10550;SDS011;5324;50.684;3.862;2023-03-13T00:04:28;6.23;;;3.37;;
10550;SDS011;5324;50.684;3.862;2023-03-13T00:06:54;7.87;;;2.87;;
10550;SDS011;5324;50.684;3.862;2023-03-13T00:09:20;8.87;;;3.37;;
10550;SDS011;5324;50.684;3.862;2023-03-13T00:11:47;7.03;;;3.43;;
10550;SDS011;5324;50.684;3.862;2023-03-13T00:14:13;7.03;;;3.30;;
10550;SDS011;5324;50.684;3.862;2023-03-13T00:16:39;5.93;;;2.87;;
10550;SDS011;5324;50.684;3.862;2023-03-13T00:19:06;7.13;;;2.90;;
10550;SDS011;5324;50.684;3.862;2023-03-13T00:21:32;5.37;;;3.20;;
10550;SDS011;5324;50.684;3.862;2023-03-13T00:24:01;5.00;;;3.00;;
10550;SDS011;5324;50.684;3.862;2023-03-13T00:26:27;4.67;;;3.30;;
10550;SDS011;5324;50.684;3.862;2023-03-13T00:28:54;7.87;;;3.03;;
10550;SDS011;5324;50.684;3.862;2023-03-13T00:31:21;8.07;;;3.60;;
10550;SDS011;5324;50.684;3.862;2023-03-13T00:33:48;5.57;;;3.30;;
10550;SDS011;5324;50.684;3.862;2023-03-13T00:36:24;5.93;;;3.40;;
10550;SDS011;5324;50.684;3.862;2023-03-13T00:38:50;7.27;;;3.77;;
10550;SDS011;5324;50.684;3.862;2023-03-13T00:41:18;6.47;;;4.00;;
10550;SDS011;5324;50.684;3.862;2023-03-13T00:43:44;4.77;;;3.50;;
10550;SDS011;5324;50.684;3.862;2023-03-13T00:46:11;5.77;;;3.47;;
10550;SDS011;5324;50.684;3.862;2023-03-13T00:48:38;6.43;;;3.53;;
10550;SDS011;5324;50.684;3.862;2023-03-13T00:51:04;8.63;;;3.47;;
10550;SDS011;5324;50.684;3.862;2023-03-13T00:53:30;6.07;;;3.40;;
10550;SDS011;5324;50.684;3.862;2023-03-13T00:55:58;6.63;;;3.80;;
10550;SDS011;5324;50.684;3.862;2023-03-13T00:58:25;7.83;;;4.27;;
10550;SDS011;5324;50.684;3.862;2023-03-13T01:00:51;6.63;;;4.00;;
10550;SDS011;5324;50.684;3.862;2023-03-13T01:03:17;4.63;;;3.30;;
10550;SDS011;5324;50.684;3.862;2023-03-13T01:05:43;6.20;;;3.43;;
10550;SDS011;5324;50.684;3.862;2023-03-13T01:08:09;5.90;;;4.10;;
10550;SDS011;5324;50.684;3.862;2023-03-13T01:10:35;4.97;;;3.37;;
10550;SDS011;5324;50.684;3.862;2023-03-13T01:13:01;5.00;;;3.43;;
10550;SDS011;5324;50.684;3.862;2023-03-13T01:15:29;5.30;;;2.93;;
10550;SDS011;5324;50.684;3.862;2023-03-13T01:17:55;6.40;;;3.53;;
10550;SDS011;5324;50.684;3.862;2023-03-13T01:20:21;6.10;;;3.47;;
10550;SDS011;5324;50.684;3.862;2023-03-13T01:22:47;6.30;;;3.60;;
10550;SDS011;5324;50.684;3.862;2023-03-13T01:25:13;4.43;;;3.10;;
10550;SDS011;5324;50.684;3.862;2023-03-13T01:27:39;4.40;;;3.33;;
10550;SDS011;5324;50.684;3.862;2023-03-13T01:30:05;5.47;;;3.83;;
10550;SDS011;5324;50.684;3.862;2023-03-13T01:32:34;3.60;;;3.30;;
10550;SDS011;5324;50.684;3.862;2023-03-13T01:35:00;4.57;;;2.97;;
10550;SDS011;5324;50.684;3.862;2023-03-13T01:37:26;5.43;;;2.97;;
10550;SDS011;5324;50.684;3.862;2023-03-13T01:39:52;5.37;;;3.63;;
10550;SDS011;5324;50.684;3.862;2023-03-13T01:42:18;5.03;;;2.90;;
10550;SDS011;5324;50.684;3.862;2023-03-13T01:44:54;3.33;;;2.90;;
10550;SDS011;5324;50.684;3.862;2023-03-13T01:47:21;3.40;;;2.90;;
10550;SDS011;5324;50.684;3.862;2023-03-13T01:49:47;2.90;;;2.60;;
10550;SDS011;5324;50.684;3.862;2023-03-13T01:52:13;3.63;;;3.13;;
10550;SDS011;5324;50.684;3.862;2023-03-13T01:54:42;4.00;;;3.23;;
10550;SDS011;5324;50.684;3.862;2023-03-13T01:57:18;4.00;;;3.67;;
10550;SDS011;5324;50.684;3.862;2023-03-13T01:59:47;3.27;;;2.93;;
10550;SDS011;5324;50.684;3.862;2023-03-13T02:02:14;4.77;;;3.33;;
10550;SDS011;5324;50.684;3.862;2023-03-13T02:04:42;4.37;;;3.10;;
10550;SDS011;5324;50.684;3.862;2023-03-13T02:07:12;4.53;;;3.67;;
10550;SDS011;5324;50.684;3.862;2023-03-13T02:09:40;3.23;;;2.93;;
10550;SDS011;5324;50.684;3.862;2023-03-13T02:12:09;3.70;;;3.40;;
10550;SDS011;5324;50.684;3.862;2023-03-13T02:14:37;3.57;;;3.03;;
10550;SDS011;5324;50.684;3.862;2023-03-13T02:17:04;4.37;;;3.07;;
10550;SDS011;5324;50.684;3.862;2023-03-13T02:27:22;3.53;;;3.17;;
10550;SDS011;5324;50.684;3.862;2023-03-13T02:29:49;6.53;;;3.20;;
10550;SDS011;5324;50.684;3.862;2023-03-13T02:32:15;3.27;;;2.97;;
10550;SDS011;5324;50.684;3.862;2023-03-13T02:34:42;3.00;;;2.80;;
10550;SDS011;5324;50.684;3.862;2023-03-13T02:37:08;4.23;;;2.80;;
10550;SDS011;5324;50.684;3.862;2023-03-13T02:39:37;4.17;;;3.07;;
10550;SDS011;5324;50.684;3.862;2023-03-13T02:42:03;3.53;;;2.60;;
10550;SDS011;5324;50.684;3.862;2023-03-13T02:44:31;3.77;;;3.00;;
10550;SDS011;5324;50.684;3.862;2023-03-13T02:47:02;3.50;;;3.20;;
10550;SDS011;5324;50.684;3.862;2023-03-13T02:49:28;4.40;;;2.60;;
10550;SDS011;5324;50.684;3.862;2023-03-13T02:51:56;4.77;;;3.13;;
10550;SDS011;5324;50.684;3.862;2023-03-13T02:54:32;5.60;;;2.83;;
10550;SDS011;5324;50.684;3.862;2023-03-13T02:56:59;3.70;;;2.90;;
10550;SDS011;5324;50.684;3.862;2023-03-13T02:59:26;4.90;;;2.80;;
10550;SDS011;5324;50.684;3.862;2023-03-13T03:01:52;3.47;;;2.67;;
10550;SDS011;5324;50.684;3.862;2023-03-13T03:04:21;3.97;;;2.70;;
10550;SDS011;5324;50.684;3.862;2023-03-13T03:06:48;2.90;;;2.60;;
10550;SDS011;5324;50.684;3.862;2023-03-13T03:09:14;5.67;;;2.50;;
10550;SDS011;5324;50.684;3.862;2023-03-13T03:11:40;4.97;;;2.80;;
10550;SDS011;5324;50.684;3.862;2023-03-13T03:14:06;4.50;;;2.50;;
10550;SDS011;5324;50.684;3.862;2023-03-13T03:16:32;2.40;;;2.17;;
10550;SDS011;5324;50.684;3.862;2023-03-13T03:18:58;3.63;;;2.40;;
10550;SDS011;5324;50.684;3.862;2023-03-13T03:21:24;5.10;;;2.70;;
10550;SDS011;5324;50.684;3.862;2023-03-13T03:23:50;5.43;;;2.67;;
10550;SDS011;5324;50.684;3.862;2023-03-13T03:26:16;3.97;;;2.80;;
10550;SDS011;5324;50.684;3.862;2023-03-13T03:28:42;5.53;;;2.43;;
10550;SDS011;5324;50.684;3.862;2023-03-13T03:31:10;2.80;;;2.27;;
10550;SDS011;5324;50.684;3.862;2023-03-13T03:33:36;4.47;;;2.40;;
10550;SDS011;5324;50.684;3.862;2023-03-13T03:36:03;4.57;;;2.57;;
10550;SDS011;5324;50.684;3.862;2023-03-13T03:38:29;3.17;;;2.50;;
10550;SDS011;5324;50.684;3.862;2023-03-13T03:40:55;3.90;;;2.23;;
10550;SDS011;5324;50.684;3.862;2023-03-13T03:43:21;4.23;;;2.53;;
10550;SDS011;5324;50.684;3.862;2023-03-13T03:45:47;5.30;;;2.60;;
10550;SDS011;5324;50.684;3.862;2023-03-13T03:48:13;2.80;;;2.40;;
10550;SDS011;5324;50.684;3.862;2023-03-13T03:50:39;2.77;;;2.40;;
10550;SDS011;5324;50.684;3.862;2023-03-13T03:53:05;6.10;;;2.57;;
10550;SDS011;5324;50.684;3.862;2023-03-13T03:55:32;4.93;;;2.73;;
10550;SDS011;5324;50.684;3.862;2023-03-13T03:57:58;3.10;;;2.53;;
10550;SDS011;5324;50.684;3.862;2023-03-13T04:00:25;5.67;;;2.67;;
10550;SDS011;5324;50.684;3.862;2023-03-13T04:02:51;4.70;;;2.57;;
10550;SDS011;5324;50.684;3.862;2023-03-13T04:05:17;3.20;;;2.50;;
10550;SDS011;5324;50.684;3.862;2023-03-13T04:07:43;4.70;;;2.83;;
10550;SDS011;5324;50.684;3.862;2023-03-13T04:10:09;3.00;;;2.57;;
10550;SDS011;5324;50.684;3.862;2023-03-13T04:12:36;6.67;;;3.07;;
10550;SDS011;5324;50.684;3.862;2023-03-13T04:15:02;6.10;;;2.17;;
10550;SDS011;5324;50.684;3.862;2023-03-13T04:17:28;3.73;;;2.50;;
10550;SDS011;5324;50.684;3.862;2023-03-13T04:19:55;4.87;;;2.50;;
10550;SDS011;5324;50.684;3.862;2023-03-13T04:22:21;3.87;;;2.77;;
10550;SDS011;5324;50.684;3.862;2023-03-13T04:24:47;4.90;;;2.40;;
10550;SDS011;5324;50.684;3.862;2023-03-13T04:27:13;4.97;;;2.40;;
10550;SDS011;5324;50.684;3.862;2023-03-13T04:29:39;3.77;;;2.53;;
10550;SDS011;5324;50.684;3.862;2023-03-13T04:32:05;3.73;;;2.53;;
10550;SDS011;5324;50.684;3.862;2023-03-13T04:34:31;3.83;;;2.47;;
10550;SDS011;5324;50.684;3.862;2023-03-13T04:36:57;6.43;;;2.47;;
10550;SDS011;5324;50.684;3.862;2023-03-13T04:39:23;6.60;;;2.50;;
10550;SDS011;5324;50.684;3.862;2023-03-13T04:41:52;6.27;;;2.53;;
10550;SDS011;5324;50.684;3.862;2023-03-13T04:44:18;4.87;;;2.33;;
10550;SDS011;5324;50.684;3.862;2023-03-13T04:46:45;4.00;;;2.30;;
10550;SDS011;5324;50.684;3.862;2023-03-13T04:49:12;4.43;;;2.30;;
10550;SDS011;5324;50.684;3.862;2023-03-13T04:51:39;8.20;;;2.60;;
10550;SDS011;5324;50.684;3.862;2023-03-13T04:54:04;4.40;;;2.63;;
10550;SDS011;5324;50.684;3.862;2023-03-13T04:56:30;4.30;;;2.43;;
10550;SDS011;5324;50.684;3.862;2023-03-13T04:58:56;4.07;;;2.63;;
10550;SDS011;5324;50.684;3.862;2023-03-13T05:01:22;5.50;;;2.63;;
10550;SDS011;5324;50.684;3.862;2023-03-13T05:03:49;7.07;;;2.67;;
10550;SDS011;5324;50.684;3.862;2023-03-13T05:06:15;2.70;;;2.40;;
10550;SDS011;5324;50.684;3.862;2023-03-13T05:08:41;9.00;;;3.00;;
10550;SDS011;5324;50.684;3.862;2023-03-13T05:11:07;6.90;;;2.83;;
10550;SDS011;5324;50.684;3.862;2023-03-13T05:13:33;3.27;;;2.33;;
10550;SDS011;5324;50.684;3.862;2023-03-13T05:15:59;6.13;;;2.60;;
10550;SDS011;5324;50.684;3.862;2023-03-13T05:18:25;5.43;;;2.77;;
10550;SDS011;5324;50.684;3.862;2023-03-13T05:20:51;2.87;;;2.23;;
10550;SDS011;5324;50.684;3.862;2023-03-13T05:23:17;7.23;;;2.80;;
10550;SDS011;5324;50.684;3.862;2023-03-13T05:25:43;5.73;;;2.40;;
10550;SDS011;5324;50.684;3.862;2023-03-13T05:28:09;2.90;;;2.43;;
10550;SDS011;5324;50.684;3.862;2023-03-13T05:30:35;6.67;;;2.60;;
10550;SDS011;5324;50.684;3.862;2023-03-13T05:33:01;3.63;;;2.20;;
10550;SDS011;5324;50.684;3.862;2023-03-13T05:35:27;5.13;;;2.43;;
10550;SDS011;5324;50.684;3.862;2023-03-13T05:37:53;7.80;;;2.37;;
10550;SDS011;5324;50.684;3.862;2023-03-13T05:40:19;4.00;;;2.53;;
10550;SDS011;5324;50.684;3.862;2023-03-13T05:42:45;5.87;;;2.30;;
10550;SDS011;5324;50.684;3.862;2023-03-13T05:45:11;7.73;;;3.30;;
10550;SDS011;5324;50.684;3.862;2023-03-13T05:47:37;7.60;;;2.63;;
10550;SDS011;5324;50.684;3.862;2023-03-13T05:50:04;8.33;;;3.13;;
10550;SDS011;5324;50.684;3.862;2023-03-13T05:52:31;6.20;;;2.80;;
10550;SDS011;5324;50.684;3.862;2023-03-13T05:54:57;6.77;;;2.67;;
10550;SDS011;5324;50.684;3.862;2023-03-13T05:57:23;6.67;;;3.37;;
10550;SDS011;5324;50.684;3.862;2023-03-13T05:59:49;6.57;;;3.47;;
10550;SDS011;5324;50.684;3.862;2023-03-13T06:02:15;7.60;;;3.00;;
10550;SDS011;5324;50.684;3.862;2023-03-13T06:04:41;6.50;;;3.27;;
10550;SDS011;5324;50.684;3.862;2023-03-13T06:07:07;7.90;;;3.37;;
10550;SDS011;5324;50.684;3.862;2023-03-13T06:09:33;7.47;;;3.30;;
10550;SDS011;5324;50.684;3.862;2023-03-13T06:11:59;5.63;;;3.10;;
10550;SDS011;5324;50.684;3.862;2023-03-13T06:14:25;5.57;;;2.67;;
10550;SDS011;5324;50.684;3.862;2023-03-13T06:16:53;3.53;;;1.90;;
10550;SDS011;5324;50.684;3.862;2023-03-13T06:19:19;7.07;;;2.53;;
10550;SDS011;5324;50.684;3.862;2023-03-13T06:21:46;6.70;;;3.57;;
10550;SDS011;5324;50.684;3.862;2023-03-13T06:24:12;5.83;;;2.53;;
10550;SDS011;5324;50.684;3.862;2023-03-13T06:26:38;4.70;;;2.70;;
10550;SDS011;5324;50.684;3.862;2023-03-13T06:29:04;6.37;;;3.00;;
10550;SDS011;5324;50.684;3.862;2023-03-13T06:31:30;5.37;;;2.73;;
10550;SDS011;5324;50.684;3.862;2023-03-13T06:33:56;6.30;;;2.60;;
10550;SDS011;5324;50.684;3.862;2023-03-13T06:36:23;8.80;;;3.53;;
10550;SDS011;5324;50.684;3.862;2023-03-13T06:38:49;4.30;;;2.53;;
10550;SDS011;5324;50.684;3.862;2023-03-13T06:41:15;6.40;;;2.50;;
10550;SDS011;5324;50.684;3.862;2023-03-13T06:43:42;4.87;;;2.53;;
10550;SDS011;5324;50.684;3.862;2023-03-13T06:46:08;7.83;;;3.00;;
10550;SDS011;5324;50.684;3.862;2023-03-13T06:48:40;5.30;;;2.63;;
10550;SDS011;5324;50.684;3.862;2023-03-13T06:51:09;7.27;;;2.50;;
10550;SDS011;5324;50.684;3.862;2023-03-13T06:53:36;5.23;;;2.53;;
10550;SDS011;5324;50.684;3.862;2023-03-13T06:56:02;8.10;;;2.90;;
10550;SDS011;5324;50.684;3.862;2023-03-13T06:58:28;4.33;;;2.03;;
10550;SDS011;5324;50.684;3.862;2023-03-13T07:00:54;4.70;;;2.60;;
10550;SDS011;5324;50.684;3.862;2023-03-13T07:03:20;6.43;;;2.50;;
10550;SDS011;5324;50.684;3.862;2023-03-13T07:05:46;5.57;;;2.93;;
10550;SDS011;5324;50.684;3.862;2023-03-13T07:08:12;5.53;;;2.27;;
10550;SDS011;5324;50.684;3.862;2023-03-13T07:10:38;5.37;;;2.27;;
10550;SDS011;5324;50.684;3.862;2023-03-13T07:13:04;4.60;;;2.73;;
10550;SDS011;5324;50.684;3.862;2023-03-13T07:15:30;4.63;;;2.30;;
10550;SDS011;5324;50.684;3.862;2023-03-13T07:17:56;3.70;;;2.17;;
10550;SDS011;5324;50.684;3.862;2023-03-13T07:20:22;10.37;;;3.53;;
10550;SDS011;5324;50.684;3.862;2023-03-13T07:22:52;5.33;;;2.50;;
10550;SDS011;5324;50.684;3.862;2023-03-13T07:25:18;6.70;;;3.17;;
10550;SDS011;5324;50.684;3.862;2023-03-13T07:27:44;5.37;;;2.77;;
10550;SDS011;5324;50.684;3.862;2023-03-13T07:30:10;3.20;;;2.50;;
10550;SDS011;5324;50.684;3.862;2023-03-13T07:32:36;5.73;;;2.33;;
10550;SDS011;5324;50.684;3.862;2023-03-13T07:35:02;6.93;;;2.93;;
10550;SDS011;5324;50.684;3.862;2023-03-13T07:37:28;6.33;;;2.70;;
10550;SDS011;5324;50.684;3.862;2023-03-13T07:39:55;4.73;;;2.27;;
10550;SDS011;5324;50.684;3.862;2023-03-13T07:42:21;6.23;;;2.47;;
10550;SDS011;5324;50.684;3.862;2023-03-13T07:44:46;5.47;;;2.60;;
10550;SDS011;5324;50.684;3.862;2023-03-13T07:47:12;9.37;;;2.87;;
10550;SDS011;5324;50.684;3.862;2023-03-13T07:49:38;6.03;;;2.87;;
10550;SDS011;5324;50.684;3.862;2023-03-13T07:52:07;6.50;;;3.07;;
10550;SDS011;5324;50.684;3.862;2023-03-13T07:54:33;5.53;;;2.50;;
10550;SDS011;5324;50.684;3.862;2023-03-13T07:57:00;4.73;;;2.10;;
10550;SDS011;5324;50.684;3.862;2023-03-13T07:59:26;7.87;;;2.87;;
10550;SDS011;5324;50.684;3.862;2023-03-13T08:01:52;5.30;;;2.50;;
10550;SDS011;5324;50.684;3.862;2023-03-13T08:04:19;5.63;;;2.67;;
10550;SDS011;5324;50.684;3.862;2023-03-13T08:06:46;5.10;;;2.60;;
10550;SDS011;5324;50.684;3.862;2023-03-13T08:09:12;2.87;;;2.63;;
10550;SDS011;5324;50.684;3.862;2023-03-13T08:11:38;3.67;;;2.60;;
10550;SDS011;5324;50.684;3.862;2023-03-13T08:14:05;5.27;;;3.00;;
10550;SDS011;5324;50.684;3.862;2023-03-13T08:16:32;4.70;;;2.63;;
10550;SDS011;5324;50.684;3.862;2023-03-13T08:18:58;4.37;;;2.60;;
10550;SDS011;5324;50.684;3.862;2023-03-13T08:21:25;2.83;;;2.40;;
10550;SDS011;5324;50.684;3.862;2023-03-13T08:23:52;5.77;;;2.90;;
10550;SDS011;5324;50.684;3.862;2023-03-13T08:26:20;5.50;;;2.20;;
10550;SDS011;5324;50.684;3.862;2023-03-13T08:28:47;6.00;;;2.87;;
10550;SDS011;5324;50.684;3.862;2023-03-13T08:31:16;7.40;;;2.83;;
10550;SDS011;5324;50.684;3.862;2023-03-13T08:33:43;4.57;;;2.60;;
10550;SDS011;5324;50.684;3.862;2023-03-13T08:36:10;3.30;;;2.67;;
10550;SDS011;5324;50.684;3.862;2023-03-13T08:38:37;4.80;;;2.67;;
10550;SDS011;5324;50.684;3.862;2023-03-13T08:41:04;8.50;;;2.90;;
10550;SDS011;5324;50.684;3.862;2023-03-13T08:43:30;3.40;;;2.70;;
10550;SDS011;5324;50.684;3.862;2023-03-13T08:45:56;7.63;;;2.57;;
10550;SDS011;5324;50.684;3.862;2023-03-13T08:48:22;5.93;;;2.30;;
10550;SDS011;5324;50.684;3.862;2023-03-13T08:50:57;3.63;;;2.40;;
10550;SDS011;5324;50.684;3.862;2023-03-13T08:53:23;3.47;;;2.00;;
10550;SDS011;5324;50.684;3.862;2023-03-13T08:55:53;4.00;;;2.40;;
10550;SDS011;5324;50.684;3.862;2023-03-13T08:58:19;4.73;;;2.13;;
10550;SDS011;5324;50.684;3.862;2023-03-13T09:00:45;3.90;;;2.17;;
10550;SDS011;5324;50.684;3.862;2023-03-13T09:03:11;4.23;;;2.63;;
10550;SDS011;5324;50.684;3.862;2023-03-13T09:05:37;2.83;;;2.37;;
10550;SDS011;5324;50.684;3.862;2023-03-13T09:08:03;3.50;;;2.00;;
10550;SDS011;5324;50.684;3.862;2023-03-13T09:10:31;4.97;;;2.70;;
10550;SDS011;5324;50.684;3.862;2023-03-13T09:12:58;4.50;;;2.37;;
10550;SDS011;5324;50.684;3.862;2023-03-13T09:15:24;3.43;;;2.17;;
10550;SDS011;5324;50.684;3.862;2023-03-13T09:17:50;4.63;;;2.37;;
10550;SDS011;5324;50.684;3.862;2023-03-13T09:20:17;5.37;;;2.53;;
10550;SDS011;5324;50.684;3.862;2023-03-13T09:22:43;4.30;;;3.80;;
10550;SDS011;5324;50.684;3.862;2023-03-13T09:25:10;5.80;;;2.40;;
10550;SDS011;5324;50.684;3.862;2023-03-13T09:27:36;4.00;;;2.57;;
10550;SDS011;5324;50.684;3.862;2023-03-13T09:30:02;2.97;;;2.23;;
10550;SDS011;5324;50.684;3.862;2023-03-13T09:32:28;4.60;;;2.53;;
10550;SDS011;5324;50.684;3.862;2023-03-13T09:34:56;4.10;;;2.23;;
10550;SDS011;5324;50.684;3.862;2023-03-13T09:37:22;5.00;;;2.50;;
10550;SDS011;5324;50.684;3.862;2023-03-13T09:39:48;2.60;;;2.20;;
10550;SDS011;5324;50.684;3.862;2023-03-13T09:42:14;6.07;;;2.93;;
10550;SDS011;5324;50.684;3.862;2023-03-13T09:47:31;5.30;;;1.83;;
10550;SDS011;5324;50.684;3.862;2023-03-13T09:50:11;4.57;;;2.30;;
10550;SDS011;5324;50.684;3.862;2023-03-13T09:52:39;3.70;;;2.13;;
10550;SDS011;5324;50.684;3.862;2023-03-13T09:57:55;2.63;;;1.90;;
10550;SDS011;5324;50.684;3.862;2023-03-13T10:00:23;3.25;;;2.13;;
10550;SDS011;5324;50.684;3.862;2023-03-13T10:02:54;2.65;;;2.22;;
10550;SDS011;5324;50.684;3.862;2023-03-13T10:05:25;3.58;;;2.42;;
10550;SDS011;5324;50.684;3.862;2023-03-13T10:07:56;4.93;;;2.13;;
10550;SDS011;5324;50.684;3.862;2023-03-13T10:11:05;1.97;;;1.80;;
10550;SDS011;5324;50.684;3.862;2023-03-13T10:13:21;5.15;;;2.58;;
10550;SDS011;5324;50.684;3.862;2023-03-13T10:15:55;1.80;;;1.70;;
10550;SDS011;5324;50.684;3.862;2023-03-13T10:18:22;3.90;;;2.13;;
10550;SDS011;5324;50.684;3.862;2023-03-13T10:20:52;3.87;;;2.30;;
10550;SDS011;5324;50.684;3.862;2023-03-13T10:23:37;4.20;;;2.20;;
10550;SDS011;5324;50.684;3.862;2023-03-13T10:26:04;2.10;;;1.87;;
10550;SDS011;5324;50.684;3.862;2023-03-13T10:28:30;3.13;;;2.00;;
10550;SDS011;5324;50.684;3.862;2023-03-13T10:30:58;3.13;;;1.97;;
10550;SDS011;5324;50.684;3.862;2023-03-13T10:33:26;2.90;;;1.90;;
10550;SDS011;5324;50.684;3.862;2023-03-13T10:35:59;3.40;;;2.67;;
10550;SDS011;5324;50.684;3.862;2023-03-13T10:38:26;3.83;;;2.17;;
10550;SDS011;5324;50.684;3.862;2023-03-13T10:40:59;2.97;;;1.80;;
10550;SDS011;5324;50.684;3.862;2023-03-13T10:43:27;3.33;;;1.33;;
10550;SDS011;5324;50.684;3.862;2023-03-13T10:45:53;4.13;;;1.50;;
10550;SDS011;5324;50.684;3.862;2023-03-13T10:50:46;3.83;;;1.45;;
10550;SDS011;5324;50.684;3.862;2023-03-13T10:55:42;1.95;;;1.60;;
10550;SDS011;5324;50.684;3.862;2023-03-13T10:58:12;1.58;;;1.23;;
10550;SDS011;5324;50.684;3.862;2023-03-13T11:00:42;4.57;;;1.58;;
10550;SDS011;5324;50.684;3.862;2023-03-13T11:03:16;4.80;;;1.40;;
10550;SDS011;5324;50.684;3.862;2023-03-13T11:05:42;2.20;;;1.55;;
10550;SDS011;5324;50.684;3.862;2023-03-13T11:10:54;2.47;;;1.50;;
10550;SDS011;5324;50.684;3.862;2023-03-13T11:16:00;4.25;;;2.15;;
10550;SDS011;5324;50.684;3.862;2023-03-13T11:18:32;1.38;;;1.25;;
10550;SDS011;5324;50.684;3.862;2023-03-13T11:21:03;2.92;;;1.42;;
10550;SDS011;5324;50.684;3.862;2023-03-13T11:23:39;3.38;;;1.10;;
10550;SDS011;5324;50.684;3.862;2023-03-13T11:29:04;2.90;;;1.17;;
10550;SDS011;5324;50.684;3.862;2023-03-13T11:31:34;2.40;;;1.48;;
10550;SDS011;5324;50.684;3.862;2023-03-13T11:36:51;2.03;;;1.70;;
10550;SDS011;5324;50.684;3.862;2023-03-13T11:42:13;1.67;;;1.20;;
10550;SDS011;5324;50.684;3.862;2023-03-13T11:44:54;3.55;;;1.45;;
10550;SDS011;5324;50.684;3.862;2023-03-13T11:47:37;2.30;;;1.45;;
10550;SDS011;5324;50.684;3.862;2023-03-13T11:50:07;1.80;;;1.15;;
10550;SDS011;5324;50.684;3.862;2023-03-13T11:55:17;3.15;;;1.50;;
10550;SDS011;5324;50.684;3.862;2023-03-13T12:00:45;1.73;;;1.27;;
10550;SDS011;5324;50.684;3.862;2023-03-13T12:03:30;2.47;;;1.30;;
10550;SDS011;5324;50.684;3.862;2023-03-13T12:05:57;1.33;;;1.20;;
10550;SDS011;5324;50.684;3.862;2023-03-13T12:08:33;5.38;;;1.70;;
10550;SDS011;5324;50.684;3.862;2023-03-13T12:13:28;1.50;;;1.40;;
10550;SDS011;5324;50.684;3.862;2023-03-13T12:15:57;1.85;;;1.73;;
10550;SDS011;5324;50.684;3.862;2023-03-13T12:26:05;3.72;;;1.45;;
10550;SDS011;5324;50.684;3.862;2023-03-13T12:28:34;3.08;;;1.52;;
10550;SDS011;5324;50.684;3.862;2023-03-13T12:31:06;3.50;;;1.48;;
10550;SDS011;5324;50.684;3.862;2023-03-13T12:33:39;3.65;;;1.45;;
10550;SDS011;5324;50.684;3.862;2023-03-13T12:36:13;3.80;;;1.83;;
10550;SDS011;5324;50.684;3.862;2023-03-13T12:38:46;1.48;;;1.35;;
10550;SDS011;5324;50.684;3.862;2023-03-13T12:41:33;1.58;;;1.40;;
10550;SDS011;5324;50.684;3.862;2023-03-13T12:44:03;3.78;;;1.55;;
10550;SDS011;5324;50.684;3.862;2023-03-13T12:54:08;2.97;;;1.50;;
10550;SDS011;5324;50.684;3.862;2023-03-13T12:59:24;1.67;;;1.52;;
10550;SDS011;5324;50.684;3.862;2023-03-13T13:01:52;3.72;;;1.65;;
10550;SDS011;5324;50.684;3.862;2023-03-13T13:04:20;4.80;;;1.40;;
10550;SDS011;5324;50.684;3.862;2023-03-13T13:09:18;2.92;;;1.38;;
10550;SDS011;5324;50.684;3.862;2023-03-13T13:11:46;2.33;;;1.42;;
10550;SDS011;5324;50.684;3.862;2023-03-13T13:16:45;3.17;;;1.52;;
10550;SDS011;5324;50.684;3.862;2023-03-13T13:24:39;1.58;;;1.30;;
10550;SDS011;5324;50.684;3.862;2023-03-13T13:27:25;3.47;;;1.33;;
10550;SDS011;5324;50.684;3.862;2023-03-13T13:29:52;6.00;;;1.35;;
10550;SDS011;5324;50.684;3.862;2023-03-13T13:32:27;3.55;;;1.40;;
10550;SDS011;5324;50.684;3.862;2023-03-13T13:34:54;3.28;;;1.50;;
10550;SDS011;5324;50.684;3.862;2023-03-13T13:39:48;3.28;;;1.40;;
10550;SDS011;5324;50.684;3.862;2023-03-13T13:45:17;2.85;;;1.55;;
10550;SDS011;5324;50.684;3.862;2023-03-13T13:47:46;2.72;;;1.40;;
10550;SDS011;5324;50.684;3.862;2023-03-13T13:50:25;4.40;;;1.55;;
10550;SDS011;5324;50.684;3.862;2023-03-13T13:52:52;2.88;;;1.58;;
10550;SDS011;5324;50.684;3.862;2023-03-13T13:57:47;5.55;;;2.13;;
10550;SDS011;5324;50.684;3.862;2023-03-13T14:02:53;8.70;;;2.20;;
10550;SDS011;5324;50.684;3.862;2023-03-13T14:05:23;3.90;;;1.75;;
10550;SDS011;5324;50.684;3.862;2023-03-13T14:13:37;4.57;;;1.85;;
10550;SDS011;5324;50.684;3.862;2023-03-13T14:15:56;3.80;;;1.95;;
10550;SDS011;5324;50.684;3.862;2023-03-13T14:18:31;2.78;;;1.67;;
10550;SDS011;5324;50.684;3.862;2023-03-13T14:21:03;4.03;;;1.58;;
10550;SDS011;5324;50.684;3.862;2023-03-13T14:23:38;8.10;;;2.17;;
10550;SDS011;5324;50.684;3.862;2023-03-13T14:26:18;2.65;;;1.60;;
10550;SDS011;5324;50.684;3.862;2023-03-13T14:28:52;4.70;;;1.70;;
10550;SDS011;5324;50.684;3.862;2023-03-13T14:31:22;2.58;;;1.60;;
10550;SDS011;5324;50.684;3.862;2023-03-13T14:33:48;3.70;;;1.58;;
10550;SDS011;5324;50.684;3.862;2023-03-13T14:36:14;4.28;;;1.83;;
10550;SDS011;5324;50.684;3.862;2023-03-13T14:38:49;4.70;;;2.08;;
10550;SDS011;5324;50.684;3.862;2023-03-13T14:42:00;4.00;;;1.70;;
10550;SDS011;5324;50.684;3.862;2023-03-13T14:44:06;6.10;;;1.83;;
10550;SDS011;5324;50.684;3.862;2023-03-13T14:46:39;5.57;;;2.13;;
10550;SDS011;5324;50.684;3.862;2023-03-13T14:49:07;3.78;;;1.50;;
10550;SDS011;5324;50.684;3.862;2023-03-13T14:51:35;3.13;;;1.85;;
10550;SDS011;5324;50.684;3.862;2023-03-13T14:54:04;4.30;;;1.50;;
10550;SDS011;5324;50.684;3.862;2023-03-13T14:56:31;3.92;;;1.60;;
10550;SDS011;5324;50.684;3.862;2023-03-13T14:59:17;4.10;;;1.80;;
10550;SDS011;5324;50.684;3.862;2023-03-13T15:01:44;3.78;;;1.40;;
10550;SDS011;5324;50.684;3.862;2023-03-13T15:04:11;4.75;;;1.83;;
10550;SDS011;5324;50.684;3.862;2023-03-13T15:06:37;5.03;;;1.70;;
10550;SDS011;5324;50.684;3.862;2023-03-13T15:11:37;5.53;;;2.03;;
10550;SDS011;5324;50.684;3.862;2023-03-13T15:14:28;6.32;;;1.75;;
10550;SDS011;5324;50.684;3.862;2023-03-13T15:16:50;6.50;;;1.75;;
10550;SDS011;5324;50.684;3.862;2023-03-13T15:19:16;6.47;;;2.15;;
10550;SDS011;5324;50.684;3.862;2023-03-13T15:21:42;4.50;;;1.50;;
10550;SDS011;5324;50.684;3.862;2023-03-13T15:24:11;4.30;;;1.88;;
10550;SDS011;5324;50.684;3.862;2023-03-13T15:26:38;3.63;;;1.85;;
10550;SDS011;5324;50.684;3.862;2023-03-13T15:29:04;4.55;;;1.90;;
10550;SDS011;5324;50.684;3.862;2023-03-13T15:31:30;3.88;;;1.65;;
10550;SDS011;5324;50.684;3.862;2023-03-13T15:33:57;5.38;;;2.10;;
10550;SDS011;5324;50.684;3.862;2023-03-13T15:36:23;3.97;;;1.63;;
10550;SDS011;5324;50.684;3.862;2023-03-13T15:38:49;5.93;;;2.10;;
10550;SDS011;5324;50.684;3.862;2023-03-13T15:41:16;3.83;;;1.98;;
10550;SDS011;5324;50.684;3.862;2023-03-13T15:43:42;6.43;;;2.25;;
10550;SDS011;5324;50.684;3.862;2023-03-13T15:46:10;6.47;;;2.10;;
10550;SDS011;5324;50.684;3.862;2023-03-13T15:48:37;4.78;;;1.98;;
10550;SDS011;5324;50.684;3.862;2023-03-13T15:51:03;5.97;;;1.90;;
10550;SDS011;5324;50.684;3.862;2023-03-13T15:53:30;5.40;;;2.25;;
10550;SDS011;5324;50.684;3.862;2023-03-13T15:55:57;3.17;;;1.80;;
10550;SDS011;5324;50.684;3.862;2023-03-13T15:58:23;6.93;;;2.33;;
10550;SDS011;5324;50.684;3.862;2023-03-13T16:00:51;6.68;;;2.00;;
10550;SDS011;5324;50.684;3.862;2023-03-13T16:03:24;6.78;;;2.08;;
10550;SDS011;5324;50.684;3.862;2023-03-13T16:05:51;5.00;;;2.17;;
10550;SDS011;5324;50.684;3.862;2023-03-13T16:08:21;8.27;;;2.33;;
10550;SDS011;5324;50.684;3.862;2023-03-13T16:10:48;5.95;;;1.70;;
10550;SDS011;5324;50.684;3.862;2023-03-13T16:13:14;3.83;;;2.25;;
10550;SDS011;5324;50.684;3.862;2023-03-13T16:15:41;8.13;;;2.22;;
10550;SDS011;5324;50.684;3.862;2023-03-13T16:18:08;6.28;;;2.30;;
10550;SDS011;5324;50.684;3.862;2023-03-13T16:20:34;5.93;;;1.73;;
10550;SDS011;5324;50.684;3.862;2023-03-13T16:23:00;5.40;;;2.28;;
10550;SDS011;5324;50.684;3.862;2023-03-13T16:25:27;8.63;;;2.67;;
10550;SDS011;5324;50.684;3.862;2023-03-13T16:27:54;9.15;;;2.13;;
10550;SDS011;5324;50.684;3.862;2023-03-13T16:32:46;5.15;;;2.28;;
10550;SDS011;5324;50.684;3.862;2023-03-13T16:35:12;3.70;;;2.17;;